createdAt,value
2022-12-13T00:02:03.225Z,98435.97
2022-12-13T00:04:31.965Z,98439.63
2022-12-13T00:07:00.663Z,98431.13
2022-12-13T00:09:29.337Z,98431.81
2022-12-13T00:11:57.947Z,98433.41
2022-12-13T00:14:27.993Z,98427.22
2022-12-13T00:16:56.586Z,98424.25
2022-12-13T00:19:25.260Z,98424.91
2022-12-13T00:21:53.889Z,98431.00
2022-12-13T00:24:22.501Z,98429.63
2022-12-13T00:26:51.100Z,98425.31
2022-12-13T00:29:19.713Z,98421.97
2022-12-13T00:32:00.582Z,98425.75
2022-12-13T00:34:29.912Z,98428.44
2022-12-13T00:37:00.017Z,98415.78
2022-12-13T00:39:28.991Z,98414.13
2022-12-13T00:41:58.081Z,98413.56
2022-12-13T00:44:26.757Z,98416.00
2022-12-13T00:46:56.746Z,98416.25
2022-12-13T00:49:25.737Z,98414.13
2022-12-13T00:51:54.327Z,98404.47
2022-12-13T00:54:23.104Z,98412.94
2022-12-13T00:56:52.314Z,98402.03
2022-12-13T00:59:20.965Z,98389.81
2022-12-13T01:01:49.797Z,98389.41
2022-12-13T01:04:19.851Z,98390.72
2022-12-13T01:06:51.301Z,98388.44
2022-12-13T01:09:21.803Z,98385.34
2022-12-13T01:11:51.302Z,98377.84
2022-12-13T01:14:20.785Z,98379.28
2022-12-13T01:16:49.435Z,98382.41
2022-12-13T01:19:19.496Z,98385.88
2022-12-13T01:21:48.118Z,98392.44
2022-12-13T01:24:20.557Z,98386.69
2022-12-13T01:26:49.195Z,98388.00
2022-12-13T01:29:17.981Z,98381.56
2022-12-13T01:31:46.651Z,98394.06
2022-12-13T01:34:17.533Z,98397.13
2022-12-13T01:36:48.583Z,98388.53
2022-12-13T01:39:19.599Z,98385.44
2022-12-13T01:41:59.242Z,98389.06
2022-12-13T01:44:59.133Z,98391.88
2022-12-13T01:47:30.353Z,98383.16
2022-12-13T01:50:01.637Z,98376.97
2022-12-13T01:52:33.719Z,98368.25
2022-12-13T01:55:04.068Z,98384.34
2022-12-13T01:57:34.366Z,98381.31
2022-12-13T02:00:03.671Z,98380.69
2022-12-13T02:02:32.272Z,98378.97
2022-12-13T02:05:05.487Z,98374.75
2022-12-13T02:07:36.776Z,98374.22
2022-12-13T02:10:07.009Z,98367.09
2022-12-13T02:12:37.636Z,98366.84
2022-12-13T02:15:11.638Z,98369.78
2022-12-13T02:17:53.085Z,98369.66
2022-12-13T02:20:44.479Z,98356.63
2022-12-13T02:23:28.787Z,98362.91
2022-12-13T02:26:14.000Z,98358.59
2022-12-13T02:28:55.390Z,98359.25
2022-12-13T02:31:31.185Z,98357.41
2022-12-13T02:34:03.205Z,98356.97
2022-12-13T02:36:35.988Z,98352.78
2022-12-13T02:39:10.196Z,98343.97
2022-12-13T02:41:42.193Z,98351.88
2022-12-13T02:44:22.466Z,98345.16
2022-12-13T02:46:56.385Z,98341.94
2022-12-13T02:49:26.938Z,98334.16
2022-12-13T02:51:57.195Z,98340.47
2022-12-13T02:54:25.838Z,98349.44
2022-12-13T02:56:55.712Z,98334.34
2022-12-13T02:59:26.068Z,98353.31
2022-12-13T03:02:10.476Z,98349.31
2022-12-13T03:05:01.993Z,98341.41
2022-12-13T03:07:34.988Z,98343.81
2022-12-13T03:10:07.464Z,98332.03
2022-12-13T03:13:04.183Z,98330.41
2022-12-13T03:15:35.800Z,98324.25
2022-12-13T03:18:15.315Z,98324.50
2022-12-13T03:20:47.081Z,98320.47
2022-12-13T03:23:16.751Z,98314.03
2022-12-13T03:25:46.209Z,98305.94
2022-12-13T03:28:14.834Z,98311.31
2022-12-13T03:30:43.422Z,98313.44
2022-12-13T03:33:13.350Z,98312.63
2022-12-13T03:35:44.990Z,98325.69
2022-12-13T03:38:22.379Z,98321.53
2022-12-13T03:40:54.063Z,98319.53
2022-12-13T03:43:23.459Z,98318.84
2022-12-13T03:45:52.809Z,98310.38
2022-12-13T03:48:24.015Z,98312.94
2022-12-13T03:50:54.433Z,98309.66
2022-12-13T03:53:33.641Z,98311.41
2022-12-13T03:56:04.999Z,98314.88
2022-12-13T03:58:37.651Z,98313.03
2022-12-13T04:01:07.777Z,98307.34
2022-12-13T04:03:38.454Z,98298.47
2022-12-13T04:06:07.908Z,98299.44
2022-12-13T04:08:37.295Z,98295.66
2022-12-13T04:11:26.599Z,98295.78
2022-12-13T04:13:54.600Z,98292.84
2022-12-13T04:16:24.140Z,98293.88
2022-12-13T04:18:54.203Z,98294.88
2022-12-13T04:21:22.779Z,98293.09
2022-12-13T04:23:51.370Z,98294.56
2022-12-13T04:26:19.934Z,98286.69
2022-12-13T04:28:54.204Z,98293.25
2022-12-13T04:31:23.447Z,98294.94
2022-12-13T04:33:53.764Z,98285.44
2022-12-13T04:36:31.184Z,98290.03
2022-12-13T04:39:02.226Z,98296.19
2022-12-13T04:41:34.240Z,98295.50
2022-12-13T04:44:04.190Z,98297.25
2022-12-13T04:46:32.797Z,98294.69
2022-12-13T04:49:02.798Z,98298.88
2022-12-13T04:51:31.382Z,98292.41
2022-12-13T04:54:12.939Z,98294.94
2022-12-13T04:56:48.686Z,98295.34
2022-12-13T04:59:17.350Z,98293.97
2022-12-13T05:01:45.986Z,98295.72
2022-12-13T05:04:15.931Z,98291.81
2022-12-13T05:06:44.547Z,98291.81
2022-12-13T05:09:13.154Z,98289.94
2022-12-13T05:11:45.722Z,98294.22
2022-12-13T05:14:14.931Z,98288.19
2022-12-13T05:16:53.253Z,98289.38
2022-12-13T05:19:30.157Z,98288.19
2022-12-13T05:22:01.647Z,98282.59
2022-12-13T05:24:31.841Z,98279.47
2022-12-13T05:27:00.811Z,98287.94
2022-12-13T05:29:29.635Z,98282.97
2022-12-13T05:31:58.550Z,98278.94
2022-12-13T05:34:28.826Z,98289.13
2022-12-13T05:36:57.458Z,98274.94
2022-12-13T05:39:28.623Z,98280.84
2022-12-13T05:42:02.454Z,98281.66
2022-12-13T05:44:32.318Z,98286.75
2022-12-13T05:47:02.297Z,98278.72
2022-12-13T05:49:33.013Z,98270.94
2022-12-13T05:52:01.601Z,98273.38
2022-12-13T05:54:30.169Z,98273.88
2022-12-13T05:56:58.848Z,98270.50
2022-12-13T05:59:27.518Z,98267.81
2022-12-13T06:01:56.352Z,98274.94
2022-12-13T06:04:25.079Z,98274.41
2022-12-13T06:06:55.042Z,98260.06
2022-12-13T06:09:24.198Z,98261.25
2022-12-13T06:12:00.884Z,98262.25
2022-12-13T06:14:30.213Z,98271.22
2022-12-13T06:16:58.842Z,98266.59
2022-12-13T06:19:27.851Z,98267.38
2022-12-13T06:21:57.914Z,98266.84
2022-12-13T06:24:27.495Z,98263.25
2022-12-13T06:26:56.073Z,98269.84
2022-12-13T06:29:25.789Z,98271.69
2022-12-13T06:32:01.218Z,98266.84
2022-12-13T06:34:33.322Z,98265.63
2022-12-13T06:37:04.612Z,98265.63
2022-12-13T06:39:33.791Z,98257.84
2022-12-13T06:42:05.849Z,98258.28
2022-12-13T06:44:34.611Z,98261.94
2022-12-13T06:47:11.755Z,98271.75
2022-12-13T06:49:43.444Z,98263.81
2022-12-13T06:52:14.954Z,98259.94
2022-12-13T06:54:44.124Z,98264.22
2022-12-13T06:57:13.464Z,98282.06
2022-12-13T06:59:42.743Z,98284.34
2022-12-13T07:02:25.221Z,98274.59
2022-12-13T07:04:55.602Z,98275.13
2022-12-13T07:07:26.249Z,98284.13
2022-12-13T07:09:54.876Z,98286.50
2022-12-13T07:12:23.688Z,98281.41
2022-12-13T07:14:52.335Z,98279.53
2022-12-13T07:17:32.730Z,98284.75
2022-12-13T07:20:05.144Z,98291.22
2022-12-13T07:22:36.954Z,98292.84
2022-12-13T07:25:28.217Z,98293.50
2022-12-13T07:28:01.463Z,98296.06
2022-12-13T07:30:32.525Z,98294.56
2022-12-13T07:33:02.029Z,98297.16
2022-12-13T07:35:30.856Z,98290.06
2022-12-13T07:38:07.693Z,98292.50
2022-12-13T07:40:36.417Z,98291.66
2022-12-13T07:43:05.937Z,98286.03
2022-12-13T07:45:34.568Z,98298.56
2022-12-13T07:48:08.515Z,98304.09
2022-12-13T07:50:37.993Z,98300.63
2022-12-13T07:53:09.282Z,98304.56
2022-12-13T07:55:38.729Z,98317.09
2022-12-13T07:58:08.626Z,98319.25
2022-12-13T08:00:37.666Z,98309.19
2022-12-13T08:03:06.968Z,98317.41
2022-12-13T08:05:38.720Z,98318.50
2022-12-13T08:08:11.829Z,98320.38
2022-12-13T08:10:40.638Z,98319.47
2022-12-13T08:13:09.298Z,98313.66
2022-12-13T08:15:37.924Z,98325.09
2022-12-13T08:18:06.564Z,98315.97
2022-12-13T08:20:35.137Z,98321.19
2022-12-13T08:23:03.708Z,98329.00
2022-12-13T08:25:33.703Z,98322.94
2022-12-13T08:28:02.835Z,98327.94
2022-12-13T08:30:33.384Z,98327.94
2022-12-13T08:33:05.048Z,98276.97
2022-12-13T08:35:35.284Z,98322.16
2022-12-13T08:38:04.530Z,98324.19
2022-12-13T08:40:35.211Z,98310.16
2022-12-13T08:43:04.099Z,98323.75
2022-12-13T08:45:34.269Z,98319.44
2022-12-13T08:48:03.287Z,98334.66
2022-12-13T08:50:32.141Z,98328.75
2022-12-13T08:53:00.748Z,98324.97
2022-12-13T08:55:32.262Z,98322.84
2022-12-13T08:58:08.671Z,98331.56
2022-12-13T09:00:37.920Z,98337.75
2022-12-13T09:03:10.138Z,98330.19
2022-12-13T09:05:39.394Z,98331.69
2022-12-13T09:08:24.287Z,98322.28
2022-12-13T09:10:59.305Z,98310.56
2022-12-13T09:13:32.350Z,98305.72
2022-12-13T09:16:05.324Z,98306.94
2022-12-13T09:18:43.165Z,98317.00
2022-12-13T09:21:14.034Z,98310.25
2022-12-13T09:23:51.186Z,98300.97
2022-12-13T09:26:25.519Z,98305.53
2022-12-13T09:28:55.696Z,98300.97
2022-12-13T09:31:24.578Z,98307.16
2022-12-13T09:33:53.295Z,98302.28
2022-12-13T09:36:22.799Z,98305.50
2022-12-13T09:38:53.087Z,98301.97
2022-12-13T09:41:29.199Z,98300.19
2022-12-13T09:44:02.039Z,98308.41
2022-12-13T09:46:34.498Z,98303.41
2022-12-13T09:49:22.679Z,98307.53
2022-12-13T09:52:10.285Z,98317.28
2022-12-13T09:54:48.144Z,98314.25
2022-12-13T09:57:33.042Z,98312.72
2022-12-13T10:00:06.240Z,98303.97
2022-12-13T10:02:41.128Z,98303.88
2022-12-13T10:05:21.665Z,98310.72
2022-12-13T10:07:54.056Z,98304.06
2022-12-13T10:10:22.876Z,98298.00
2022-12-13T10:12:54.593Z,98291.41
2022-12-13T10:15:25.520Z,98293.38
2022-12-13T10:17:55.160Z,98290.31
2022-12-13T10:20:28.675Z,98281.25
2022-12-13T10:23:31.439Z,98274.22
2022-12-13T10:25:51.009Z,98276.72
2022-12-13T10:28:26.513Z,98284.09
2022-12-13T10:30:57.469Z,98284.25
2022-12-13T10:33:29.823Z,98279.91
2022-12-13T10:36:10.705Z,98277.50
2022-12-13T10:38:41.325Z,98275.41
2022-12-13T10:41:31.062Z,98269.47
2022-12-13T10:44:18.200Z,98251.25
2022-12-13T10:46:53.476Z,98258.69
2022-12-13T10:49:23.967Z,98262.38
2022-12-13T10:51:54.197Z,98252.50
2022-12-13T10:54:27.766Z,98260.16
2022-12-13T10:57:00.199Z,98253.06
2022-12-13T10:59:34.331Z,98249.41
2022-12-13T11:02:30.061Z,98247.69
2022-12-13T11:04:59.308Z,98244.84
2022-12-13T11:07:30.260Z,98243.63
2022-12-13T11:10:05.115Z,98232.69
2022-12-13T11:12:34.408Z,98242.06
2022-12-13T11:15:06.210Z,98247.59
2022-12-13T11:17:40.650Z,98246.88
2022-12-13T11:20:17.794Z,98235.47
2022-12-13T11:22:46.528Z,98242.56
2022-12-13T11:25:21.560Z,98238.22
2022-12-13T11:28:03.463Z,98234.78
2022-12-13T11:31:01.453Z,98226.78
2022-12-13T11:33:47.801Z,98221.03
2022-12-13T11:36:24.428Z,98213.31
2022-12-13T11:39:06.924Z,98217.19
2022-12-13T11:41:37.571Z,98214.94
2022-12-13T11:44:13.740Z,98207.50
2022-12-13T11:46:44.902Z,98203.78
2022-12-13T11:49:18.834Z,98189.88
2022-12-13T11:51:50.077Z,98204.50
2022-12-13T11:54:24.565Z,98195.22
2022-12-13T11:56:59.403Z,98199.28
2022-12-13T11:59:39.969Z,98211.63
2022-12-13T12:02:16.788Z,98212.31
2022-12-13T12:04:56.407Z,98219.81
2022-12-13T12:07:33.482Z,98209.09
2022-12-13T12:10:17.098Z,98204.47
2022-12-13T12:12:50.623Z,98210.09
2022-12-13T12:15:26.347Z,98210.25
2022-12-13T12:17:56.246Z,98208.59
2022-12-13T12:20:33.605Z,98196.88
2022-12-13T12:23:06.805Z,98196.38
2022-12-13T12:25:45.886Z,98189.16
2022-12-13T12:28:23.514Z,98198.31
2022-12-13T12:30:56.899Z,98186.75
2022-12-13T12:33:33.493Z,98194.50
2022-12-13T12:36:23.705Z,98193.25
2022-12-13T12:39:07.042Z,98190.84
2022-12-13T12:41:49.086Z,98181.81
2022-12-13T12:44:30.518Z,98170.44
2022-12-13T12:47:35.482Z,98177.34
2022-12-13T12:50:14.331Z,98175.88
2022-12-13T12:52:52.469Z,98169.47
2022-12-13T12:55:39.252Z,98176.06
2022-12-13T12:58:16.478Z,98169.81
2022-12-13T13:00:51.688Z,98170.78
2022-12-13T13:03:23.319Z,98176.06
2022-12-13T13:06:01.628Z,98169.19
2022-12-13T13:08:38.341Z,98170.78
2022-12-13T13:11:24.597Z,98167.41
2022-12-13T13:14:03.588Z,98160.34
2022-12-13T13:16:35.611Z,98163.25
2022-12-13T13:19:05.065Z,98167.75
2022-12-13T13:21:36.274Z,98158.59
2022-12-13T13:24:24.045Z,98152.31
2022-12-13T13:26:55.090Z,98148.63
2022-12-13T13:29:44.657Z,98142.66
2022-12-13T13:32:28.836Z,98141.41
2022-12-13T13:35:30.761Z,98146.72
2022-12-13T13:38:00.239Z,98139.47
2022-12-13T13:40:35.354Z,98135.75
2022-12-13T13:43:09.467Z,98137.06
2022-12-13T13:46:10.703Z,98137.22
2022-12-13T13:48:57.305Z,98143.19
2022-12-13T13:52:26.485Z,98146.88
2022-12-13T13:55:38.573Z,98144.09
2022-12-13T13:58:45.851Z,98147.34
2022-12-13T14:01:40.371Z,98138.00
2022-12-13T14:04:34.201Z,98139.78
2022-12-13T14:07:54.459Z,98143.47
2022-12-13T14:10:56.781Z,98138.97
2022-12-13T14:14:03.424Z,98143.31
2022-12-13T14:17:10.908Z,98150.69
2022-12-13T14:20:10.892Z,98154.38
2022-12-13T14:22:42.128Z,98164.84
2022-12-13T14:25:45.081Z,98156.63
2022-12-13T14:28:27.338Z,98155.34
2022-12-13T14:30:57.553Z,98161.94
2022-12-13T14:33:28.311Z,98154.06
2022-12-13T14:35:58.687Z,98152.78
2022-12-13T14:38:29.358Z,98142.31
2022-12-13T14:40:59.904Z,98148.44
2022-12-13T14:43:31.400Z,98148.44
2022-12-13T14:46:01.806Z,98146.84
2022-12-13T14:48:31.182Z,98146.69
2022-12-13T14:50:59.826Z,98153.13
2022-12-13T14:53:29.635Z,98156.31
2022-12-13T14:56:07.621Z,98146.22
2022-12-13T14:58:38.036Z,98145.59
2022-12-13T15:01:07.575Z,98143.63
2022-12-13T15:03:36.650Z,98144.75
2022-12-13T15:06:05.624Z,98136.75
2022-12-13T15:08:36.508Z,98137.72
2022-12-13T15:11:09.775Z,98137.69
2022-12-13T15:13:41.617Z,98125.84
2022-12-13T15:16:17.090Z,98122.78
2022-12-13T15:18:50.484Z,98118.59
2022-12-13T15:21:22.972Z,98119.41
2022-12-13T15:23:52.775Z,98113.16
2022-12-13T15:26:28.067Z,98121.63
2022-12-13T15:29:00.772Z,98124.22
2022-12-13T15:31:30.082Z,98116.34
2022-12-13T15:34:34.560Z,98105.13
2022-12-13T15:37:05.503Z,98103.66
2022-12-13T15:39:38.462Z,98090.50
2022-12-13T15:42:15.409Z,98091.47
2022-12-13T15:44:54.497Z,98088.25
2022-12-13T15:47:28.474Z,98095.78
2022-12-13T15:49:59.218Z,98090.50
2022-12-13T15:52:36.934Z,98096.94
2022-12-13T15:55:28.728Z,98087.28
2022-12-13T15:57:58.680Z,98088.75
2022-12-13T16:00:31.431Z,98090.50
2022-12-13T16:03:08.962Z,98077.81
2022-12-13T16:05:41.441Z,98073.97
2022-12-13T16:08:24.296Z,98078.31
2022-12-13T16:10:53.924Z,98079.09
2022-12-13T16:13:27.077Z,98072.19
2022-12-13T16:15:59.948Z,98075.41
2022-12-13T16:18:32.212Z,98075.88
2022-12-13T16:21:01.272Z,98076.53
2022-12-13T16:23:30.108Z,98065.63
2022-12-13T16:25:59.205Z,98069.31
2022-12-13T16:28:29.761Z,98058.06
2022-12-13T16:31:05.594Z,98055.97
2022-12-13T16:33:34.623Z,98054.22
2022-12-13T16:36:03.660Z,98053.72
2022-12-13T16:38:33.176Z,98053.56
2022-12-13T16:41:09.578Z,98061.94
2022-12-13T16:43:41.504Z,98069.31
2022-12-13T16:47:13.757Z,98070.94
2022-12-13T16:49:03.218Z,98062.56
2022-12-13T16:51:31.880Z,98059.34
2022-12-13T16:54:00.483Z,98057.72
2022-12-13T16:56:29.092Z,98063.50
2022-12-13T16:58:57.704Z,98062.25
2022-12-13T17:01:29.236Z,98063.19
2022-12-13T17:03:58.066Z,98066.53
2022-12-13T17:06:26.740Z,98067.66
2022-12-13T17:08:56.305Z,98065.72
2022-12-13T17:11:24.902Z,98064.25
2022-12-13T17:13:53.524Z,98070.81
2022-12-13T17:16:22.161Z,98074.34
2022-12-13T17:18:52.207Z,98069.50
2022-12-13T17:21:20.840Z,98063.88
2022-12-13T17:23:49.516Z,98068.47
2022-12-13T17:26:18.180Z,98071.06
2022-12-13T17:28:47.293Z,98069.28
2022-12-13T17:31:16.106Z,98065.63
2022-12-13T17:33:45.268Z,98062.66
2022-12-13T17:36:16.832Z,98066.34
2022-12-13T17:38:46.724Z,98060.88
2022-12-13T17:41:16.104Z,98069.09
2022-12-13T17:43:45.052Z,98057.22
2022-12-13T17:46:15.966Z,98063.78
2022-12-13T17:48:45.557Z,98062.31
2022-12-13T17:51:16.310Z,98066.66
2022-12-13T17:53:45.668Z,98057.53
2022-12-13T17:56:16.101Z,98046.97
2022-12-13T17:58:45.219Z,98034.59
2022-12-13T18:01:15.139Z,98043.09
2022-12-13T18:03:44.845Z,98051.44
2022-12-13T18:06:14.859Z,98057.91
2022-12-13T18:08:44.293Z,98056.25
2022-12-13T18:14:02.750Z,98050.63
2022-12-13T18:16:37.016Z,98045.34
2022-12-13T18:19:07.309Z,98040.53
2022-12-13T18:21:37.676Z,98029.31
2022-12-13T18:24:07.300Z,98030.44
2022-12-13T18:26:36.130Z,98032.19
2022-12-13T18:29:05.570Z,98026.09
2022-12-13T18:31:34.361Z,98025.78
2022-12-13T18:34:03.072Z,98036.41
2022-12-13T18:36:32.195Z,98017.75
2022-12-13T18:39:02.495Z,98025.47
2022-12-13T18:41:31.647Z,98029.19
2022-12-13T18:44:01.784Z,98023.91
2022-12-13T18:46:32.633Z,98038.28
2022-12-13T18:49:01.468Z,98041.53
2022-12-13T18:51:30.186Z,98048.72
2022-12-13T18:53:59.252Z,98044.88
2022-12-13T18:56:29.272Z,98023.03
2022-12-13T18:58:58.352Z,98043.91
2022-12-13T19:01:27.965Z,98043.69
2022-12-13T19:03:56.748Z,98027.72
2022-12-13T19:06:27.240Z,98022.41
2022-12-13T19:08:57.633Z,98020.31
2022-12-13T19:11:30.558Z,98020.31
2022-12-13T19:13:59.236Z,98013.94
2022-12-13T19:16:28.074Z,98006.09
2022-12-13T19:18:56.706Z,97993.75
2022-12-13T19:21:25.376Z,97983.00
2022-12-13T19:23:57.939Z,97975.50
2022-12-13T19:26:28.398Z,97970.38
2022-12-13T19:28:59.459Z,97963.97
2022-12-13T19:31:31.879Z,97963.78
2022-12-13T19:34:02.115Z,97960.88
2022-12-13T19:36:31.490Z,97963.56
2022-12-13T19:39:00.444Z,97964.56
2022-12-13T19:41:29.511Z,97954.97
2022-12-13T19:43:59.469Z,97960.94
2022-12-13T19:46:37.932Z,97945.31
2022-12-13T19:49:06.599Z,97951.78
2022-12-13T19:51:39.510Z,97951.13
2022-12-13T19:54:10.681Z,97947.75
2022-12-13T19:56:39.450Z,97948.25
2022-12-13T19:59:08.186Z,97941.38
2022-12-13T20:01:38.247Z,97941.25
2022-12-13T20:04:06.928Z,97936.59
2022-12-13T20:06:35.623Z,97929.69
2022-12-13T20:09:04.679Z,97923.16
2022-12-13T20:11:33.344Z,97922.03
2022-12-13T20:14:02.015Z,97921.38
2022-12-13T20:16:30.738Z,97923.44
2022-12-13T20:19:01.446Z,97925.19
2022-12-13T20:21:30.293Z,97925.97
2022-12-13T20:23:59.479Z,97917.50
2022-12-13T20:26:30.188Z,97933.34
2022-12-13T20:28:59.193Z,97922.00
2022-12-13T20:31:29.179Z,97916.38
2022-12-13T20:34:00.294Z,97919.72
2022-12-13T20:36:30.604Z,97920.03
2022-12-13T20:39:00.433Z,97915.41
2022-12-13T20:41:30.606Z,97920.22
2022-12-13T20:44:00.432Z,97919.91
2022-12-13T20:46:30.100Z,97924.22
2022-12-13T20:49:02.306Z,97922.94
2022-12-13T20:51:32.095Z,97918.78
2022-12-13T20:54:00.822Z,97921.00
2022-12-13T20:56:31.671Z,97918.91
2022-12-13T20:59:00.369Z,97914.91
2022-12-13T21:01:31.363Z,97908.97
2022-12-13T21:04:02.909Z,97908.69
2022-12-13T21:06:32.841Z,97912.22
2022-12-13T21:09:02.730Z,97909.13
2022-12-13T21:11:33.335Z,97914.56
2022-12-13T21:14:08.243Z,97918.25
2022-12-13T21:16:40.974Z,97903.50
2022-12-13T21:19:12.205Z,97900.31
2022-12-13T21:21:41.025Z,97891.19
2022-12-13T21:24:10.112Z,97907.38
2022-12-13T21:26:39.196Z,97902.44
2022-12-13T21:29:10.920Z,97901.63
2022-12-13T21:31:40.759Z,97896.81
2022-12-13T21:34:11.314Z,97906.59
2022-12-13T21:36:41.715Z,97902.28
2022-12-13T21:39:13.817Z,97891.53
2022-12-13T21:41:43.125Z,97882.91
2022-12-13T21:44:12.103Z,97888.34
2022-12-13T21:47:10.626Z,97878.09
2022-12-13T21:49:31.559Z,97874.88
2022-12-13T21:52:00.247Z,97877.44
2022-12-13T21:54:28.828Z,97870.25
2022-12-13T21:57:17.082Z,97856.16
2022-12-13T21:59:45.792Z,97852.44
2022-12-13T22:02:18.198Z,97861.13
2022-12-13T22:04:49.842Z,97854.72
2022-12-13T22:07:20.237Z,97853.59
2022-12-13T22:09:49.396Z,97857.59
2022-12-13T22:12:20.687Z,97849.44
2022-12-13T22:14:49.568Z,97845.72
2022-12-13T22:17:18.723Z,97853.06
2022-12-13T22:19:49.240Z,97835.78
2022-12-13T22:22:18.351Z,97844.75
2022-12-13T22:24:53.158Z,97827.16
2022-12-13T22:27:23.944Z,97818.03
2022-12-13T22:29:53.354Z,97815.97
2022-12-13T22:32:22.405Z,97810.84
2022-12-13T22:34:52.477Z,97806.81
2022-12-13T22:37:21.276Z,97806.66
2022-12-13T22:39:49.900Z,97814.50
2022-12-13T22:42:18.521Z,97824.75
2022-12-13T22:44:47.672Z,97826.19
2022-12-13T22:47:16.605Z,97813.38
2022-12-13T22:49:45.199Z,97815.63
2022-12-13T22:52:19.000Z,97815.47
2022-12-13T22:54:47.690Z,97810.81
2022-12-13T22:57:16.290Z,97799.91
2022-12-13T22:59:44.943Z,97795.59
2022-12-13T23:02:13.662Z,97789.50
2022-12-13T23:04:42.413Z,97782.59
2022-12-13T23:07:11.148Z,97792.56
2022-12-13T23:09:41.094Z,97799.94
2022-12-13T23:12:28.127Z,97791.75
2022-12-13T23:14:56.762Z,97777.84
2022-12-13T23:17:25.361Z,97772.38
2022-12-13T23:19:53.976Z,97778.78
2022-12-13T23:22:23.735Z,97773.00
2022-12-13T23:24:54.030Z,97775.06
2022-12-13T23:27:23.889Z,97780.03
2022-12-13T23:29:52.536Z,97773.34
2022-12-13T23:32:21.162Z,97769.50
2022-12-13T23:34:49.798Z,97772.69
2022-12-13T23:37:18.482Z,97766.59
2022-12-13T23:39:47.098Z,97767.22
2022-12-13T23:42:17.047Z,97776.03
2022-12-13T23:44:45.660Z,97779.91
2022-12-13T23:47:14.272Z,97791.41
2022-12-13T23:49:42.940Z,97790.63
2022-12-13T23:52:11.655Z,97778.78
2022-12-13T23:54:40.221Z,97768.22
2022-12-13T23:57:08.855Z,97777.03
2022-12-13T23:59:38.785Z,97783.25
